createdAt,value
2022-09-13T00:01:15.037Z,100690.84
2022-09-13T00:03:43.167Z,100694.38
2022-09-13T00:06:14.632Z,100690.28
2022-09-13T00:08:42.937Z,100680.03
2022-09-13T00:11:23.059Z,100680.91
2022-09-13T00:13:51.694Z,100673.72
2022-09-13T00:16:20.937Z,100684.66
2022-09-13T00:18:49.413Z,100674.28
2022-09-13T00:21:24.020Z,100675.88
2022-09-13T00:23:53.489Z,100675.34
2022-09-13T00:26:23.233Z,100667.50
2022-09-13T00:28:52.706Z,100667.88
2022-09-13T00:31:22.193Z,100670.78
2022-09-13T00:33:50.202Z,100663.44
2022-09-13T00:36:19.564Z,100657.63
2022-09-13T00:38:47.808Z,100649.09
2022-09-13T00:41:17.419Z,100645.31
2022-09-13T00:43:48.556Z,100617.53
2022-09-13T00:46:21.488Z,100612.41
2022-09-13T00:48:51.908Z,100620.06
2022-09-13T00:51:21.756Z,100625.53
2022-09-13T00:53:51.886Z,100625.72
2022-09-13T00:56:23.185Z,100618.19
2022-09-13T00:58:54.381Z,100621.59
2022-09-13T01:01:25.073Z,100637.84
2022-09-13T01:03:53.078Z,100656.78
2022-09-13T01:06:29.511Z,100655.56
2022-09-13T01:08:59.110Z,100635.09
2022-09-13T01:11:30.813Z,100627.94
2022-09-13T01:13:58.935Z,100621.44
2022-09-13T01:16:27.936Z,100615.47
2022-09-13T01:18:56.015Z,100602.66
2022-09-13T01:21:54.680Z,100600.59
2022-09-13T01:24:51.161Z,100592.06
2022-09-13T01:27:28.943Z,100582.19
2022-09-13T01:30:22.287Z,100581.34
2022-09-13T01:32:59.548Z,100568.50
2022-09-13T01:35:36.052Z,100559.13
2022-09-13T01:38:10.972Z,100557.59
2022-09-13T01:40:49.893Z,100546.88
2022-09-13T01:43:34.700Z,100542.47
2022-09-13T01:46:07.537Z,100539.19
2022-09-13T01:48:42.515Z,100543.63
2022-09-13T01:51:14.363Z,100540.91
2022-09-13T01:53:49.601Z,100530.50
2022-09-13T01:56:22.269Z,100532.50
2022-09-13T01:58:55.473Z,100530.50
2022-09-13T02:01:27.650Z,100541.25
2022-09-13T02:04:00.675Z,100526.41
2022-09-13T02:06:31.919Z,100541.06
2022-09-13T02:09:03.120Z,100531.88
2022-09-13T02:11:32.699Z,100532.22
2022-09-13T02:14:03.678Z,100539.69
2022-09-13T02:16:37.611Z,100545.84
2022-09-13T02:19:10.441Z,100540.88
2022-09-13T02:21:40.168Z,100540.00
2022-09-13T02:24:09.547Z,100536.81
2022-09-13T02:26:39.509Z,100534.75
2022-09-13T02:29:13.790Z,100547.53
2022-09-13T02:31:47.551Z,100539.88
2022-09-13T02:34:20.104Z,100537.47
2022-09-13T02:36:49.797Z,100532.19
2022-09-13T02:39:19.645Z,100535.22
2022-09-13T02:41:52.470Z,100543.91
2022-09-13T02:44:24.633Z,100529.78
2022-09-13T02:47:06.282Z,100520.69
2022-09-13T02:49:45.994Z,100523.13
2022-09-13T02:52:22.547Z,100518.69
2022-09-13T02:54:53.750Z,100519.19
2022-09-13T02:57:24.893Z,100522.06
2022-09-13T02:59:52.869Z,100516.78
2022-09-13T03:02:24.503Z,100510.47
2022-09-13T03:04:52.780Z,100505.00
2022-09-13T03:07:21.003Z,100498.53
2022-09-13T03:09:53.566Z,100490.69
2022-09-13T03:12:43.871Z,100497.50
2022-09-13T03:15:18.245Z,100490.69
2022-09-13T03:17:56.124Z,100485.22
2022-09-13T03:20:31.836Z,100488.41
2022-09-13T03:23:11.844Z,100461.34
2022-09-13T03:25:56.571Z,100463.94
2022-09-13T03:28:32.842Z,100456.44
2022-09-13T03:31:06.542Z,100467.84
2022-09-13T03:33:42.204Z,100457.94
2022-09-13T03:36:14.345Z,100466.09
2022-09-13T03:38:47.133Z,100467.63
2022-09-13T03:41:18.225Z,100451.28
2022-09-13T03:43:50.560Z,100450.75
2022-09-13T03:46:23.518Z,100459.13
2022-09-13T03:48:53.194Z,100455.22
2022-09-13T03:51:21.354Z,100461.19
2022-09-13T03:53:54.460Z,100465.97
2022-09-13T03:56:22.506Z,100465.41
2022-09-13T03:58:51.190Z,100471.38
2022-09-13T04:01:21.956Z,100470.81
2022-09-13T04:03:53.316Z,100467.41
2022-09-13T04:06:25.303Z,100478.53
2022-09-13T04:08:53.340Z,100486.19
2022-09-13T04:11:21.660Z,100487.63
2022-09-13T04:13:49.854Z,100495.28
2022-09-13T04:16:18.064Z,100492.22
2022-09-13T04:18:46.136Z,100508.94
2022-09-13T04:21:14.179Z,100495.63
2022-09-13T04:23:43.755Z,100496.63
2022-09-13T04:26:11.950Z,100509.78
2022-09-13T04:28:39.918Z,100494.75
2022-09-13T04:31:07.996Z,100496.81
2022-09-13T04:33:36.394Z,100486.22
2022-09-13T04:36:04.630Z,100487.75
2022-09-13T04:38:32.730Z,100483.84
2022-09-13T04:41:02.296Z,100487.03
2022-09-13T04:43:30.759Z,100492.66
2022-09-13T04:46:01.915Z,100492.00
2022-09-13T04:48:29.984Z,100502.75
2022-09-13T04:51:03.075Z,100509.38
2022-09-13T04:53:31.159Z,100504.59
2022-09-13T04:56:03.314Z,100497.94
2022-09-13T04:58:31.607Z,100500.81
2022-09-13T05:01:02.778Z,100487.09
2022-09-13T05:03:31.423Z,100485.91
2022-09-13T05:06:03.886Z,100480.53
2022-09-13T05:08:32.017Z,100487.75
2022-09-13T05:11:00.312Z,100491.66
2022-09-13T05:13:29.797Z,100500.50
2022-09-13T05:15:58.110Z,100501.19
2022-09-13T05:18:27.426Z,100491.69
2022-09-13T05:20:56.464Z,100503.28
2022-09-13T05:23:25.415Z,100515.22
2022-09-13T05:25:56.642Z,100509.03
2022-09-13T05:28:25.331Z,100516.59
2022-09-13T05:30:59.478Z,100518.94
2022-09-13T05:33:28.205Z,100515.41
2022-09-13T05:35:56.440Z,100516.75
2022-09-13T05:38:24.767Z,100509.78
2022-09-13T05:40:57.205Z,100487.94
2022-09-13T05:43:26.586Z,100499.84
2022-09-13T05:46:03.845Z,100498.50
2022-09-13T05:48:32.106Z,100493.50
2022-09-13T05:51:06.750Z,100501.53
2022-09-13T05:53:35.329Z,100495.19
2022-09-13T05:56:03.757Z,100502.16
2022-09-13T05:58:31.759Z,100494.94
2022-09-13T06:00:59.986Z,100504.00
2022-09-13T06:03:29.393Z,100512.22
2022-09-13T06:05:58.766Z,100502.13
2022-09-13T06:08:27.732Z,100493.78
2022-09-13T06:10:57.626Z,100512.22
2022-09-13T06:13:26.192Z,100509.09
2022-09-13T06:15:55.547Z,100505.16
2022-09-13T06:18:24.710Z,100492.72
2022-09-13T06:20:59.347Z,100495.59
2022-09-13T06:23:27.648Z,100502.41
2022-09-13T06:26:02.935Z,100515.50
2022-09-13T06:28:34.297Z,100511.97
2022-09-13T06:31:06.482Z,100514.00
2022-09-13T06:33:35.005Z,100514.00
2022-09-13T06:36:05.831Z,100502.22
2022-09-13T06:38:33.865Z,100518.38
2022-09-13T06:41:03.102Z,100512.41
2022-09-13T06:43:31.214Z,100506.66
2022-09-13T06:46:03.275Z,100511.84
2022-09-13T06:48:34.639Z,100507.59
2022-09-13T06:51:05.804Z,100520.22
2022-09-13T06:53:34.936Z,100520.22
2022-09-13T06:56:04.618Z,100513.13
2022-09-13T06:58:33.112Z,100511.53
2022-09-13T07:01:12.653Z,100512.22
2022-09-13T07:03:42.214Z,100512.47
2022-09-13T07:06:13.810Z,100516.03
2022-09-13T07:08:42.585Z,100523.88
2022-09-13T07:11:11.278Z,100514.06
2022-09-13T07:13:39.727Z,100517.59
2022-09-13T07:16:10.880Z,100510.97
2022-09-13T07:18:39.523Z,100511.16
2022-09-13T07:21:08.800Z,100515.91
2022-09-13T07:23:39.903Z,100519.91
2022-09-13T07:26:11.052Z,100532.44
2022-09-13T07:28:41.582Z,100533.16
2022-09-13T07:31:11.222Z,100524.38
2022-09-13T07:33:39.768Z,100537.56
2022-09-13T07:36:13.312Z,100535.06
2022-09-13T07:38:45.342Z,100540.59
2022-09-13T07:41:17.158Z,100534.38
2022-09-13T07:43:45.797Z,100534.69
2022-09-13T07:46:15.747Z,100538.56
2022-09-13T07:48:45.144Z,100535.97
2022-09-13T07:51:15.113Z,100547.47
2022-09-13T07:53:45.986Z,100551.91
2022-09-13T07:56:15.523Z,100559.13
2022-09-13T07:58:45.571Z,100568.50
2022-09-13T08:01:17.456Z,100562.81
2022-09-13T08:03:46.011Z,100560.25
2022-09-13T08:06:14.240Z,100566.38
2022-09-13T08:08:42.267Z,100562.44
2022-09-13T08:11:17.391Z,100570.75
2022-09-13T08:13:45.637Z,100559.03
2022-09-13T08:16:14.278Z,100561.72
2022-09-13T08:18:45.527Z,100566.34
2022-09-13T08:21:13.611Z,100560.44
2022-09-13T08:23:42.212Z,100568.50
2022-09-13T08:26:11.827Z,100571.63
2022-09-13T08:28:41.080Z,100572.53
2022-09-13T08:31:10.806Z,100578.59
2022-09-13T08:33:44.224Z,100573.34
2022-09-13T08:36:14.421Z,100573.13
2022-09-13T08:38:46.795Z,100574.22
2022-09-13T08:41:32.511Z,100581.38
2022-09-13T08:44:04.717Z,100577.16
2022-09-13T08:46:35.895Z,100581.69
2022-09-13T08:49:10.171Z,100575.44
2022-09-13T08:51:43.807Z,100585.19
2022-09-13T08:54:13.035Z,100591.91
2022-09-13T08:56:45.581Z,100591.91
2022-09-13T08:59:46.435Z,100594.63
2022-09-13T09:02:32.031Z,100598.88
2022-09-13T09:05:05.526Z,100598.03
2022-09-13T09:07:37.880Z,100594.81
2022-09-13T09:10:08.600Z,100595.03
2022-09-13T09:12:41.310Z,100590.19
2022-09-13T09:15:16.509Z,100589.25
2022-09-13T09:17:51.810Z,100588.94
2022-09-13T09:20:27.962Z,100587.19
2022-09-13T09:22:57.121Z,100587.31
2022-09-13T09:25:26.789Z,100587.25
2022-09-13T09:27:56.388Z,100592.78
2022-09-13T09:30:24.323Z,100599.88
2022-09-13T09:33:07.162Z,100602.50
2022-09-13T09:35:46.245Z,100599.06
2022-09-13T09:38:25.283Z,100608.41
2022-09-13T09:40:53.581Z,100608.19
2022-09-13T09:43:27.064Z,100612.38
2022-09-13T09:45:56.206Z,100611.53
2022-09-13T09:48:29.845Z,100613.88
2022-09-13T09:51:00.326Z,100598.88
2022-09-13T09:53:36.154Z,100605.50
2022-09-13T09:56:08.426Z,100604.59
2022-09-13T09:58:42.483Z,100603.47
2022-09-13T10:01:19.399Z,100604.38
2022-09-13T10:03:52.674Z,100607.03
2022-09-13T10:06:21.886Z,100607.78
2022-09-13T10:08:57.080Z,100606.28
2022-09-13T10:11:27.482Z,100602.22
2022-09-13T10:14:04.464Z,100596.06
2022-09-13T10:16:33.053Z,100601.66
2022-09-13T10:19:28.095Z,100606.88
2022-09-13T10:22:06.933Z,100609.03
2022-09-13T10:24:34.882Z,100605.94
2022-09-13T10:27:04.164Z,100608.31
2022-09-13T10:29:34.304Z,100612.00
2022-09-13T10:32:09.785Z,100616.50
2022-09-13T10:34:38.392Z,100612.38
2022-09-13T10:37:13.954Z,100609.13
2022-09-13T10:39:56.027Z,100607.00
2022-09-13T10:42:26.376Z,100594.19
2022-09-13T10:44:57.182Z,100604.53
2022-09-13T10:47:27.915Z,100616.47
2022-09-13T10:49:57.641Z,100602.09
2022-09-13T10:52:32.345Z,100612.47
2022-09-13T10:55:26.162Z,100606.75
2022-09-13T10:57:55.300Z,100599.66
2022-09-13T11:00:31.105Z,100595.16
2022-09-13T11:03:13.235Z,100606.97
2022-09-13T11:05:43.309Z,100607.47
2022-09-13T11:08:20.166Z,100603.53
2022-09-13T11:10:56.731Z,100592.34
2022-09-13T11:13:33.075Z,100588.16
2022-09-13T11:16:10.919Z,100586.34
2022-09-13T11:18:55.486Z,100591.75
2022-09-13T11:21:35.648Z,100600.59
2022-09-13T11:24:18.167Z,100590.72
2022-09-13T11:26:54.555Z,100584.38
2022-09-13T11:29:41.279Z,100590.47
2022-09-13T11:32:20.622Z,100590.38
2022-09-13T11:34:57.720Z,100584.94
2022-09-13T11:37:42.482Z,100587.88
2022-09-13T11:40:27.272Z,100585.41
2022-09-13T11:43:02.294Z,100572.69
2022-09-13T11:45:32.486Z,100583.50
2022-09-13T11:48:24.586Z,100564.47
2022-09-13T11:50:59.408Z,100568.66
2022-09-13T11:53:50.383Z,100580.94
2022-09-13T11:56:23.022Z,100575.59
2022-09-13T11:58:53.706Z,100573.59
2022-09-13T12:01:28.608Z,100579.25
2022-09-13T12:04:02.148Z,100569.38
2022-09-13T12:06:33.028Z,100577.16
2022-09-13T12:09:04.225Z,100574.53
2022-09-13T12:11:35.186Z,100568.91
2022-09-13T12:14:06.583Z,100579.09
2022-09-13T12:16:36.999Z,100588.84
2022-09-13T12:19:09.096Z,100588.44
2022-09-13T12:21:39.535Z,100582.28
2022-09-13T12:24:21.578Z,100581.84
2022-09-13T12:26:54.429Z,100581.63
2022-09-13T12:29:26.789Z,100590.19
2022-09-13T12:31:57.692Z,100583.59
2022-09-13T12:34:32.450Z,100582.13
2022-09-13T12:37:16.158Z,100589.28
2022-09-13T12:40:06.546Z,100585.75
2022-09-13T12:42:57.495Z,100593.41
2022-09-13T12:45:43.966Z,100582.41
2022-09-13T12:48:31.114Z,100592.19
2022-09-13T12:51:07.689Z,100565.72
2022-09-13T12:54:05.667Z,100573.00
2022-09-13T12:56:47.673Z,100579.13
2022-09-13T12:59:35.845Z,100585.31
2022-09-13T13:02:05.047Z,100584.47
2022-09-13T13:04:35.300Z,100570.50
2022-09-13T13:07:07.252Z,100567.25
2022-09-13T13:09:41.088Z,100573.19
2022-09-13T13:12:09.460Z,100578.72
2022-09-13T13:14:53.729Z,100571.03
2022-09-13T13:17:39.535Z,100582.00
2022-09-13T13:20:42.122Z,100593.50
2022-09-13T13:23:20.959Z,100601.63
2022-09-13T13:26:07.954Z,100599.13
2022-09-13T13:29:14.253Z,100603.13
2022-09-13T13:32:04.505Z,100583.56
2022-09-13T13:34:37.699Z,100608.03
2022-09-13T13:37:08.818Z,100607.94
2022-09-13T13:39:40.352Z,100595.84
2022-09-13T13:42:31.784Z,100603.75
2022-09-13T13:45:21.580Z,100605.41
2022-09-13T13:48:10.526Z,100595.63
2022-09-13T13:51:15.731Z,100583.31
2022-09-13T13:53:46.621Z,100578.44
2022-09-13T13:56:21.763Z,100597.91
2022-09-13T13:58:54.497Z,100579.97
2022-09-13T14:01:27.181Z,100594.56
2022-09-13T14:04:12.776Z,100584.09
2022-09-13T14:06:49.836Z,100583.75
2022-09-13T14:09:33.360Z,100590.50
2022-09-13T14:12:17.016Z,100585.38
2022-09-13T14:14:59.996Z,100582.06
2022-09-13T14:18:14.280Z,100587.31
2022-09-13T14:21:03.855Z,100585.31
2022-09-13T14:23:35.366Z,100584.41
2022-09-13T14:26:03.796Z,100589.69
2022-09-13T14:28:33.646Z,100585.06
2022-09-13T14:31:01.699Z,100585.81
2022-09-13T14:33:37.567Z,100586.34
2022-09-13T14:36:18.448Z,100574.47
2022-09-13T14:38:54.974Z,100575.13
2022-09-13T14:41:37.588Z,100567.00
2022-09-13T14:44:28.425Z,100570.56
2022-09-13T14:47:02.531Z,100571.91
2022-09-13T14:49:35.786Z,100570.53
2022-09-13T14:52:09.046Z,100580.09
2022-09-13T14:54:39.843Z,100575.78
2022-09-13T14:57:09.686Z,100584.75
2022-09-13T14:59:52.046Z,100568.72
2022-09-13T15:02:21.809Z,100584.06
2022-09-13T15:04:53.656Z,100591.06
2022-09-13T15:07:25.331Z,100593.38
2022-09-13T15:10:00.765Z,100593.16
2022-09-13T15:12:31.556Z,100580.59
2022-09-13T15:15:28.514Z,100581.66
2022-09-13T15:17:57.966Z,100585.69
2022-09-13T15:20:30.413Z,100584.41
2022-09-13T15:23:03.809Z,100597.19
2022-09-13T15:25:34.997Z,100588.50
2022-09-13T15:28:03.416Z,100587.16
2022-09-13T15:30:38.926Z,100585.66
2022-09-13T15:33:16.070Z,100602.22
2022-09-13T15:35:45.587Z,100590.13
2022-09-13T15:38:20.126Z,100600.34
2022-09-13T15:40:54.521Z,100594.19
2022-09-13T15:43:28.186Z,100596.75
2022-09-13T15:46:02.421Z,100594.41
2022-09-13T15:48:36.959Z,100596.34
2022-09-13T15:51:14.569Z,100601.38
2022-09-13T15:53:46.578Z,100608.88
2022-09-13T15:56:19.639Z,100605.81
2022-09-13T15:58:53.725Z,100596.09
2022-09-13T16:01:23.386Z,100597.38
2022-09-13T16:03:51.857Z,100598.94
2022-09-13T16:06:24.435Z,100599.38
2022-09-13T16:08:52.843Z,100597.53
2022-09-13T16:11:20.875Z,100610.59
2022-09-13T16:13:49.027Z,100604.16
2022-09-13T16:16:27.791Z,100603.50
2022-09-13T16:18:58.678Z,100600.53
2022-09-13T16:21:26.780Z,100609.09
2022-09-13T16:23:56.461Z,100600.59
2022-09-13T16:26:24.557Z,100600.13
2022-09-13T16:28:53.837Z,100599.09
2022-09-13T16:31:23.455Z,100604.84
2022-09-13T16:33:51.486Z,100615.69
2022-09-13T16:36:20.775Z,100613.41
2022-09-13T16:38:48.928Z,100610.66
2022-09-13T16:41:17.210Z,100604.41
2022-09-13T16:43:46.872Z,100605.13
2022-09-13T16:46:15.367Z,100612.66
2022-09-13T16:48:45.227Z,100620.53
2022-09-13T16:51:17.478Z,100608.78
2022-09-13T16:53:50.101Z,100614.56
2022-09-13T16:56:21.547Z,100609.88
2022-09-13T16:58:52.636Z,100612.06
2022-09-13T17:01:22.666Z,100605.50
2022-09-13T17:03:54.767Z,100597.16
2022-09-13T17:06:24.489Z,100602.22
2022-09-13T17:08:55.428Z,100611.88
2022-09-13T17:11:25.700Z,100599.38
2022-09-13T17:13:54.075Z,100608.44
2022-09-13T17:16:25.698Z,100593.38
2022-09-13T17:18:55.677Z,100610.16
2022-09-13T17:21:23.683Z,100610.41
2022-09-13T17:23:51.746Z,100607.75
2022-09-13T17:26:20.043Z,100614.72
2022-09-13T17:28:48.648Z,100616.53
2022-09-13T17:31:16.978Z,100613.56
2022-09-13T17:33:45.160Z,100619.25
2022-09-13T17:36:15.313Z,100628.94
2022-09-13T17:38:43.933Z,100630.63
2022-09-13T17:41:21.352Z,100606.63
2022-09-13T17:44:01.080Z,100608.31
2022-09-13T17:46:30.272Z,100619.44
2022-09-13T17:49:00.331Z,100608.16
2022-09-13T17:51:31.634Z,100599.66
2022-09-13T17:54:01.379Z,100598.56
2022-09-13T17:56:30.970Z,100607.78
2022-09-13T17:59:12.680Z,100602.38
2022-09-13T18:02:07.319Z,100603.34
2022-09-13T18:04:35.765Z,100598.84
2022-09-13T18:07:08.388Z,100611.97
2022-09-13T18:09:41.606Z,100609.38
2022-09-13T18:12:09.888Z,100611.94
2022-09-13T18:14:41.300Z,100625.50
2022-09-13T18:17:16.227Z,100620.09
2022-09-13T18:19:58.105Z,100611.06
2022-09-13T18:22:27.596Z,100613.41
2022-09-13T18:25:04.774Z,100610.06
2022-09-13T18:27:32.962Z,100604.59
2022-09-13T18:30:21.523Z,100614.13
2022-09-13T18:32:49.599Z,100614.91
2022-09-13T18:35:22.226Z,100612.41
2022-09-13T18:37:56.844Z,100613.28
2022-09-13T18:40:24.901Z,100617.50
2022-09-13T18:42:59.974Z,100616.94
2022-09-13T18:45:27.975Z,100626.22
2022-09-13T18:47:55.900Z,100617.06
2022-09-13T18:50:24.530Z,100617.69
2022-09-13T18:52:54.157Z,100625.75
2022-09-13T18:55:22.124Z,100621.31
2022-09-13T18:57:54.203Z,100619.38
2022-09-13T19:00:47.065Z,100609.53
2022-09-13T19:03:15.270Z,100610.50
2022-09-13T19:05:43.948Z,100611.81
2022-09-13T19:08:21.629Z,100613.06
2022-09-13T19:10:49.571Z,100615.72
2022-09-13T19:13:22.488Z,100607.88
2022-09-13T19:15:52.190Z,100613.75
2022-09-13T19:18:20.170Z,100608.31
2022-09-13T19:20:48.399Z,100607.00
2022-09-13T19:23:17.981Z,100610.59
2022-09-13T19:25:46.719Z,100601.78
2022-09-13T19:28:17.663Z,100608.56
2022-09-13T19:30:50.141Z,100612.13
2022-09-13T19:33:22.493Z,100603.69
2022-09-13T19:35:50.552Z,100602.31
2022-09-13T19:38:28.129Z,100603.09
2022-09-13T19:41:07.685Z,100606.56
2022-09-13T19:43:37.916Z,100606.00
2022-09-13T19:46:10.495Z,100599.97
2022-09-13T19:48:52.279Z,100594.38
2022-09-13T19:51:27.997Z,100603.22
2022-09-13T19:54:06.885Z,100592.44
2022-09-13T19:56:38.168Z,100591.50
2022-09-13T19:59:07.607Z,100596.47
2022-09-13T20:01:43.882Z,100587.66
2022-09-13T20:04:17.565Z,100591.16
2022-09-13T20:06:49.415Z,100579.69
2022-09-13T20:09:20.194Z,100595.22
2022-09-13T20:11:49.047Z,100598.13
2022-09-13T20:14:20.369Z,100599.41
2022-09-13T20:16:48.627Z,100592.22
2022-09-13T20:19:47.874Z,100586.72
2022-09-13T20:22:21.995Z,100597.47
2022-09-13T20:24:51.896Z,100583.00
2022-09-13T20:27:20.194Z,100591.78
2022-09-13T20:29:49.551Z,100589.53
2022-09-13T20:32:17.495Z,100583.66
2022-09-13T20:34:45.943Z,100597.78
2022-09-13T20:37:13.894Z,100590.06
2022-09-13T20:39:42.123Z,100590.56
2022-09-13T20:42:17.968Z,100593.66
2022-09-13T20:44:46.100Z,100590.06
2022-09-13T20:47:18.867Z,100588.41
2022-09-13T20:49:47.127Z,100581.09
2022-09-13T20:52:15.180Z,100579.09
2022-09-13T20:54:43.313Z,100580.00
2022-09-13T20:57:12.755Z,100585.28
2022-09-13T20:59:40.687Z,100588.53
2022-09-13T21:02:13.561Z,100581.88
2022-09-13T21:04:41.706Z,100570.09
2022-09-13T21:07:27.124Z,100573.72
2022-09-13T21:09:59.833Z,100576.16
2022-09-13T21:12:31.820Z,100569.09
2022-09-13T21:15:02.584Z,100580.38
2022-09-13T21:17:33.423Z,100574.88
2022-09-13T21:20:06.233Z,100575.09
2022-09-13T21:22:36.132Z,100573.06
2022-09-13T21:25:04.339Z,100578.38
2022-09-13T21:27:34.115Z,100581.81
2022-09-13T21:30:02.222Z,100592.16
2022-09-13T21:32:30.330Z,100585.81
2022-09-13T21:35:00.790Z,100581.94
2022-09-13T21:37:28.770Z,100581.94
2022-09-13T21:40:00.690Z,100581.81
2022-09-13T21:42:28.872Z,100585.41
2022-09-13T21:44:58.419Z,100572.06
2022-09-13T21:47:26.447Z,100574.69
2022-09-13T21:49:59.721Z,100574.44
2022-09-13T21:52:30.835Z,100572.06
2022-09-13T21:55:04.153Z,100574.81
2022-09-13T21:57:35.239Z,100576.47
2022-09-13T22:00:13.989Z,100568.66
2022-09-13T22:02:45.433Z,100562.50
2022-09-13T22:05:26.776Z,100562.81
2022-09-13T22:07:57.858Z,100571.88
2022-09-13T22:10:42.530Z,100564.56
2022-09-13T22:13:13.734Z,100565.41
2022-09-13T22:15:46.483Z,100562.88
2022-09-13T22:18:31.067Z,100562.00
2022-09-13T22:21:07.642Z,100555.31
2022-09-13T22:23:55.584Z,100565.94
2022-09-13T22:26:25.464Z,100570.88
2022-09-13T22:28:54.270Z,100559.94
2022-09-13T22:31:26.059Z,100564.41
2022-09-13T22:33:56.867Z,100559.13
2022-09-13T22:36:34.929Z,100549.56
2022-09-13T22:39:08.640Z,100568.34
2022-09-13T22:41:36.587Z,100560.16
2022-09-13T22:44:15.779Z,100557.09
2022-09-13T22:46:59.722Z,100551.13
2022-09-13T22:49:35.374Z,100550.28
2022-09-13T22:52:03.831Z,100542.94
2022-09-13T22:54:34.995Z,100536.97
2022-09-13T22:57:05.640Z,100541.59
2022-09-13T22:59:41.534Z,100531.53
2022-09-13T23:02:13.389Z,100529.78
2022-09-13T23:04:44.131Z,100534.59
2022-09-13T23:07:23.241Z,100536.44
2022-09-13T23:09:54.189Z,100530.13
2022-09-13T23:12:30.523Z,100523.97
2022-09-13T23:15:17.010Z,100517.00
2022-09-13T23:17:53.294Z,100528.94
2022-09-13T23:20:27.755Z,100532.38
2022-09-13T23:22:59.729Z,100532.69
2022-09-13T23:25:30.803Z,100539.50
2022-09-13T23:28:09.063Z,100530.66
2022-09-13T23:30:37.061Z,100518.91
2022-09-13T23:33:19.634Z,100536.94
2022-09-13T23:35:48.634Z,100535.91
2022-09-13T23:38:25.461Z,100531.16
2022-09-13T23:40:55.648Z,100516.13
2022-09-13T23:43:29.052Z,100524.31
2022-09-13T23:46:02.396Z,100510.81
2022-09-13T23:48:35.220Z,100530.28
2022-09-13T23:51:25.090Z,100526.53
2022-09-13T23:53:56.745Z,100523.47
2022-09-13T23:56:25.818Z,100518.34
2022-09-13T23:58:58.861Z,100500.94
